createdAt,value
2019-05-20T00:00:41.423Z,0
2019-05-20T00:01:41.428Z,0
2019-05-20T00:02:41.418Z,0
2019-05-20T00:03:41.406Z,0
2019-05-20T00:04:41.150Z,0
2019-05-20T00:05:42.102Z,0
2019-05-20T00:06:41.389Z,0
2019-05-20T00:12:46.441Z,0
2019-05-20T00:13:41.341Z,0
2019-05-20T00:14:40.862Z,0
2019-05-20T00:15:41.321Z,0
2019-05-20T00:16:41.374Z,0
2019-05-20T00:17:41.347Z,0
2019-05-20T00:18:41.305Z,0
2019-05-20T00:19:40.804Z,0
2019-05-20T00:20:41.291Z,0
2019-05-20T00:21:41.286Z,0
2019-05-20T00:22:41.297Z,0
2019-05-20T00:23:41.273Z,0
2019-05-20T00:24:41.025Z,0
2019-05-20T00:25:41.262Z,0
2019-05-20T00:26:41.253Z,0
2019-05-20T00:27:41.262Z,0
2019-05-20T00:28:41.249Z,0
2019-05-20T00:29:40.981Z,0
2019-05-20T00:30:41.226Z,0
2019-05-20T00:48:41.154Z,0
2019-05-20T00:49:40.591Z,0
2019-05-20T00:50:41.082Z,0
2019-05-20T00:51:41.088Z,0
2019-05-20T00:52:41.075Z,0
2019-05-20T00:53:41.041Z,0
2019-05-20T00:54:41.060Z,0
2019-05-20T00:55:41.052Z,0
2019-05-20T00:56:41.030Z,0
2019-05-20T00:57:41.022Z,0
2019-05-20T00:58:41.027Z,0
2019-05-20T00:59:40.533Z,0
2019-05-20T01:00:41.066Z,0
2019-05-20T01:01:40.835Z,0
2019-05-20T01:02:54.728Z,0
2019-05-20T01:03:40.980Z,0
2019-05-20T01:04:40.752Z,0
2019-05-20T01:05:40.731Z,0
2019-05-20T01:06:40.967Z,0
2019-05-20T01:07:40.737Z,0
2019-05-20T01:08:40.935Z,0
2019-05-20T01:09:40.464Z,0
2019-05-20T01:10:40.922Z,0
2019-05-20T01:11:40.977Z,0
2019-05-20T01:12:40.947Z,0
2019-05-20T01:13:40.669Z,0
2019-05-20T01:14:41.144Z,0
2019-05-20T01:15:40.896Z,0
2019-05-20T01:16:40.904Z,0
2019-05-20T01:17:40.889Z,0
2019-05-20T01:18:40.879Z,0
2019-05-20T01:19:40.879Z,0
2019-05-20T01:20:40.863Z,0
2019-05-20T01:21:40.873Z,0
2019-05-20T01:22:40.846Z,0
2019-05-20T01:23:40.854Z,0
2019-05-20T01:24:40.593Z,0
2019-05-20T01:25:40.836Z,0
2019-05-20T01:26:40.832Z,0
2019-05-20T01:27:40.844Z,0
2019-05-20T01:28:40.812Z,0
2019-05-20T01:29:40.592Z,0
2019-05-20T01:30:40.838Z,0
2019-05-20T01:31:40.790Z,0
2019-05-20T01:32:40.574Z,0
2019-05-20T01:33:40.778Z,0
2019-05-20T01:34:40.776Z,0
2019-05-20T01:35:40.781Z,0
2019-05-20T01:36:40.876Z,0
2019-05-20T01:37:40.770Z,0
2019-05-20T01:38:40.512Z,0
2019-05-20T01:39:40.762Z,0
2019-05-20T01:40:40.731Z,0
2019-05-20T01:41:40.769Z,0
2019-05-20T01:42:42.046Z,0
2019-05-20T01:43:40.716Z,0
2019-05-20T01:44:43.012Z,0
2019-05-20T02:07:40.627Z,0
2019-05-20T02:08:40.283Z,0
2019-05-20T02:09:40.528Z,0
2019-05-20T02:10:40.548Z,0
2019-05-20T02:11:40.255Z,0
2019-05-20T02:12:40.485Z,0
2019-05-20T02:13:40.484Z,0
2019-05-20T02:14:40.249Z,0
2019-05-20T02:15:40.464Z,0
2019-05-20T02:16:40.504Z,0
2019-05-20T02:17:40.446Z,0
2019-05-20T02:18:40.448Z,0
2019-05-20T02:19:40.191Z,0
2019-05-20T02:20:40.426Z,0
2019-05-20T02:21:40.451Z,0
2019-05-20T02:22:40.409Z,0
2019-05-20T02:23:40.399Z,0
2019-05-20T02:24:40.163Z,0
2019-05-20T02:25:40.399Z,0
2019-05-20T02:26:40.377Z,0
2019-05-20T02:27:40.377Z,0
2019-05-20T02:28:40.371Z,0
2019-05-20T02:29:40.120Z,0
2019-05-20T02:30:40.390Z,0
2019-05-20T02:31:40.372Z,0
2019-05-20T02:32:40.369Z,0
2019-05-20T02:34:00.256Z,0
2019-05-20T02:34:40.105Z,0
2019-05-20T02:35:40.324Z,0
2019-05-20T02:36:40.341Z,0
2019-05-20T02:37:40.312Z,0
2019-05-20T02:38:40.324Z,0
2019-05-20T02:39:40.082Z,0
2019-05-20T02:40:40.339Z,0
2019-05-20T02:41:40.298Z,0
2019-05-20T02:42:40.343Z,0
2019-05-20T02:43:40.318Z,0
2019-05-20T02:44:40.284Z,0
2019-05-20T02:45:40.266Z,0
2019-05-20T02:46:40.263Z,0
2019-05-20T03:08:40.105Z,15
2019-05-20T03:09:39.834Z,15
2019-05-20T03:10:40.054Z,20
2019-05-20T03:11:40.048Z,20
2019-05-20T03:12:40.063Z,20
2019-05-20T03:13:40.033Z,25
2019-05-20T03:14:41.113Z,25
2019-05-20T03:15:42.558Z,25
2019-05-20T03:16:40.002Z,25
2019-05-20T03:17:39.856Z,30
2019-05-20T03:18:39.985Z,30
2019-05-20T03:19:40.753Z,35
2019-05-20T03:20:39.737Z,35
2019-05-20T03:21:39.949Z,35
2019-05-20T03:22:39.973Z,40
2019-05-20T03:23:39.982Z,40
2019-05-20T03:24:39.683Z,40
2019-05-20T03:25:39.687Z,40
2019-05-20T03:26:39.958Z,45
2019-05-20T03:27:40.040Z,45
2019-05-20T03:28:39.714Z,45
2019-05-20T03:29:39.900Z,50
2019-05-20T03:30:39.942Z,50
2019-05-20T03:31:39.660Z,55
2019-05-20T03:32:39.952Z,55
2019-05-20T03:33:40.014Z,55
2019-05-20T03:35:08.457Z,60
2019-05-20T03:35:39.951Z,60
2019-05-20T03:36:39.613Z,65
2019-05-20T03:37:39.436Z,65
2019-05-20T03:38:39.830Z,65
2019-05-20T03:39:39.599Z,70
2019-05-20T03:40:39.831Z,75
2019-05-20T03:41:39.584Z,75
2019-05-20T03:42:39.822Z,80
2019-05-20T03:43:39.831Z,80
2019-05-20T03:44:39.307Z,85
2019-05-20T03:45:39.803Z,90
2019-05-20T03:46:39.797Z,95
2019-05-20T03:47:39.807Z,100
2019-05-20T03:48:39.761Z,110
2019-05-20T03:49:39.521Z,110
2019-05-20T03:50:39.768Z,120
2019-05-20T03:51:39.778Z,125
2019-05-20T03:52:39.754Z,120
2019-05-20T03:53:39.769Z,125
2019-05-20T03:54:39.482Z,130
2019-05-20T03:55:39.738Z,140
2019-05-20T03:56:39.489Z,145
2019-05-20T03:57:39.739Z,155
2019-05-20T03:58:39.704Z,160
2019-05-20T03:59:39.734Z,160
2019-05-20T04:00:39.706Z,150
2019-05-20T04:01:39.693Z,155
2019-05-20T04:02:39.679Z,190
2019-05-20T04:03:39.460Z,200
2019-05-20T04:04:39.703Z,205
2019-05-20T04:05:39.678Z,210
2019-05-20T04:06:39.692Z,220
2019-05-20T04:07:39.658Z,210
2019-05-20T04:08:39.677Z,220
2019-05-20T04:09:39.400Z,230
2019-05-20T04:10:39.663Z,240
2019-05-20T04:11:39.642Z,245
2019-05-20T04:12:39.640Z,245
2019-05-20T04:13:44.084Z,260
2019-05-20T04:14:39.387Z,270
2019-05-20T04:15:39.640Z,260
2019-05-20T04:16:39.647Z,250
2019-05-20T04:17:39.611Z,240
2019-05-20T04:18:39.621Z,230
2019-05-20T04:19:39.626Z,225
2019-05-20T04:20:40.048Z,230
2019-05-20T04:21:39.604Z,235
2019-05-20T04:22:39.607Z,235
2019-05-20T04:23:39.749Z,235
2019-05-20T04:24:39.611Z,235
2019-05-20T04:25:39.599Z,235
2019-05-20T04:26:39.575Z,240
2019-05-20T04:27:39.596Z,235
2019-05-20T04:28:39.597Z,215
2019-05-20T04:29:39.354Z,225
2019-05-20T04:30:39.676Z,210
2019-05-20T04:31:39.562Z,210
2019-05-20T04:32:39.575Z,210
2019-05-20T04:33:39.559Z,205
2019-05-20T04:34:39.077Z,210
2019-05-20T04:35:39.549Z,200
2019-05-20T04:36:39.573Z,200
2019-05-20T04:37:41.052Z,200
2019-05-20T04:38:39.553Z,195
2019-05-20T04:39:39.553Z,195
2019-05-20T04:40:39.578Z,200
2019-05-20T04:41:42.966Z,205
2019-05-20T04:42:39.642Z,210
2019-05-20T04:43:39.565Z,225
2019-05-20T04:44:39.291Z,245
2019-05-20T04:45:42.097Z,260
2019-05-20T04:47:39.531Z,280
2019-05-20T04:48:39.539Z,295
2019-05-20T04:49:39.221Z,295
2019-05-20T04:52:39.511Z,290
2019-05-20T04:53:39.510Z,310
2019-05-20T04:54:39.523Z,375
2019-05-20T04:55:39.500Z,450
2019-05-20T04:56:39.501Z,445
2019-05-20T04:57:39.497Z,410
2019-05-20T04:58:39.518Z,490
2019-05-20T04:59:39.517Z,455
2019-05-20T05:00:39.549Z,480
2019-05-20T05:02:43.084Z,455
2019-05-20T05:03:39.482Z,460
2019-05-20T05:04:39.239Z,410
2019-05-20T05:05:47.397Z,420
2019-05-20T05:06:39.458Z,410
2019-05-20T05:07:39.448Z,420
2019-05-20T05:08:39.456Z,365
2019-05-20T05:09:39.207Z,320
2019-05-20T05:10:39.446Z,390
2019-05-20T05:11:39.458Z,310
2019-05-20T05:12:39.455Z,290
2019-05-20T05:13:39.212Z,275
2019-05-20T05:14:39.451Z,260
2019-05-20T05:15:39.441Z,265
2019-05-20T05:16:39.448Z,320
2019-05-20T05:17:39.439Z,405
2019-05-20T05:18:39.449Z,490
2019-05-20T05:19:39.188Z,615
2019-05-20T05:20:39.520Z,670
2019-05-20T05:21:39.438Z,710
2019-05-20T05:22:39.440Z,745
2019-05-20T05:23:41.628Z,785
2019-05-20T05:24:38.958Z,825
2019-05-20T05:25:38.938Z,830
2019-05-20T05:26:39.570Z,780
2019-05-20T05:27:39.436Z,625
2019-05-20T05:28:39.438Z,470
2019-05-20T05:29:39.436Z,395
2019-05-20T05:30:39.444Z,375
2019-05-20T05:31:39.439Z,375
2019-05-20T05:32:39.446Z,395
2019-05-20T05:33:39.186Z,395
2019-05-20T05:34:39.451Z,380
2019-05-20T05:35:54.659Z,415
2019-05-20T05:36:39.435Z,500
2019-05-20T05:37:39.443Z,600
2019-05-20T05:38:39.433Z,760
2019-05-20T05:39:39.450Z,720
2019-05-20T05:40:39.486Z,720
2019-05-20T05:41:39.491Z,670
2019-05-20T05:42:39.446Z,740
2019-05-20T05:43:39.450Z,755
2019-05-20T05:44:39.334Z,690
2019-05-20T05:45:39.617Z,745
2019-05-20T05:46:39.450Z,795
2019-05-20T05:47:39.470Z,945
2019-05-20T05:48:39.451Z,1005
2019-05-20T05:49:39.454Z,1050
2019-05-20T05:50:39.479Z,1165
2019-05-20T05:51:39.511Z,1170
2019-05-20T05:52:39.463Z,1160
2019-05-20T05:53:39.455Z,1160
2019-05-20T05:54:39.463Z,1145
2019-05-20T05:55:39.512Z,1150
2019-05-20T05:56:39.230Z,1115
2019-05-20T05:57:39.478Z,1180
2019-05-20T05:58:39.523Z,1170
2019-05-20T05:59:39.508Z,1220
2019-05-20T06:00:39.536Z,1205
2019-05-20T06:01:39.501Z,1190
2019-05-20T06:02:39.285Z,1205
2019-05-20T06:03:39.528Z,1215
2019-05-20T06:04:39.267Z,1175
2019-05-20T06:05:41.274Z,1200
2019-05-20T06:06:39.355Z,1195
2019-05-20T06:07:39.546Z,1200
2019-05-20T06:08:39.548Z,1215
2019-05-20T06:09:39.316Z,1060
2019-05-20T06:10:42.717Z,1155
2019-05-20T06:11:39.562Z,1245
2019-05-20T06:12:39.595Z,1285
2019-05-20T06:13:39.581Z,1325
2019-05-20T06:14:39.597Z,1345
2019-05-20T06:15:39.619Z,1345
2019-05-20T06:16:45.979Z,1050
2019-05-20T06:17:39.624Z,1050
2019-05-20T06:18:39.631Z,1205
2019-05-20T06:19:39.389Z,815
2019-05-20T06:20:39.647Z,680
2019-05-20T06:21:39.661Z,1015
2019-05-20T06:22:39.738Z,1230
2019-05-20T06:23:39.681Z,1250
2019-05-20T06:24:39.738Z,1290
2019-05-20T06:25:39.308Z,1360
2019-05-20T06:26:39.698Z,1325
2019-05-20T06:27:39.709Z,1355
2019-05-20T06:28:39.721Z,1320
2019-05-20T06:29:39.478Z,1035
2019-05-20T06:30:39.790Z,735
2019-05-20T06:31:39.762Z,1090
2019-05-20T06:32:39.762Z,910
2019-05-20T06:33:39.853Z,430
2019-05-20T06:34:42.420Z,520
2019-05-20T06:35:39.785Z,1040
2019-05-20T06:36:39.793Z,1310
2019-05-20T06:37:39.815Z,1405
2019-05-20T06:38:39.918Z,1480
2019-05-20T06:39:39.909Z,1505
2019-05-20T06:40:41.523Z,1580
2019-05-20T06:41:39.828Z,1570
2019-05-20T06:42:39.931Z,1590
2019-05-20T06:43:39.871Z,1590
2019-05-20T06:44:59.706Z,1590
2019-05-20T06:45:40.066Z,1575
2019-05-20T06:46:39.985Z,1620
2019-05-20T06:47:40.003Z,1625
2019-05-20T06:48:39.938Z,1600
2019-05-20T06:49:39.732Z,1465
2019-05-20T06:50:41.217Z,1385
2019-05-20T06:51:39.937Z,1525
2019-05-20T06:52:45.290Z,1510
2019-05-20T06:54:41.358Z,1405
2019-05-20T06:55:39.988Z,1290
2019-05-20T06:56:40.041Z,1190
2019-05-20T06:57:39.983Z,915
2019-05-20T06:58:40.011Z,950
2019-05-20T06:59:39.763Z,1490
2019-05-20T07:00:40.039Z,1775
2019-05-20T07:01:40.047Z,1745
2019-05-20T07:02:40.056Z,1650
2019-05-20T07:03:40.069Z,1535
2019-05-20T07:04:39.582Z,1615
2019-05-20T07:05:40.084Z,1580
2019-05-20T07:09:39.641Z,1685
2019-05-20T07:10:43.972Z,1740
2019-05-20T07:14:49.486Z,1995
2019-05-20T07:15:59.321Z,2000
2019-05-20T07:16:59.186Z,1890
2019-05-20T07:17:59.358Z,1890
2019-05-20T07:18:59.398Z,1965
2019-05-20T07:19:59.363Z,1915
2019-05-20T07:20:59.379Z,2000
2019-05-20T07:21:59.185Z,2065
2019-05-20T07:23:05.665Z,2105
2019-05-20T07:24:01.885Z,2105
2019-05-20T07:24:59.459Z,2120
2019-05-20T07:25:59.205Z,2135
2019-05-20T07:26:59.441Z,2130
2019-05-20T07:27:59.466Z,2075
2019-05-20T07:28:59.486Z,1780
2019-05-20T07:29:59.484Z,1335
2019-05-20T07:30:59.501Z,1255
2019-05-20T07:31:59.290Z,1470
2019-05-20T07:32:59.614Z,1575
2019-05-20T07:33:59.535Z,1695
2019-05-20T07:34:59.554Z,1645
2019-05-20T07:35:59.562Z,1600
2019-05-20T07:37:12.583Z,1455
2019-05-20T07:37:59.598Z,1420
2019-05-20T07:38:59.604Z,1510
2019-05-20T07:39:59.404Z,1610
2019-05-20T07:40:59.626Z,1570
2019-05-20T07:41:59.639Z,1570
2019-05-20T07:42:59.432Z,1655
2019-05-20T07:43:59.429Z,1665
2019-05-20T07:44:59.688Z,1755
2019-05-20T07:45:59.438Z,1900
2019-05-20T07:46:59.740Z,1990
2019-05-20T07:47:59.711Z,2035
2019-05-20T07:49:00.040Z,2135
2019-05-20T07:49:59.737Z,2120
2019-05-20T07:50:59.517Z,2150
2019-05-20T07:51:59.823Z,2210
2019-05-20T07:53:02.956Z,2170
2019-05-20T07:53:59.960Z,2030
2019-05-20T07:54:59.800Z,2070
2019-05-20T07:55:59.572Z,2180
2019-05-20T07:56:59.861Z,2470
2019-05-20T07:57:59.848Z,2755
2019-05-20T07:58:59.869Z,2615
2019-05-20T07:59:59.874Z,2880
2019-05-20T08:00:59.759Z,2890
2019-05-20T08:01:59.903Z,2920
2019-05-20T08:02:59.922Z,2915
2019-05-20T08:03:59.922Z,2910
2019-05-20T08:05:00.037Z,2880
2019-05-20T08:05:59.461Z,2850
2019-05-20T08:07:00.032Z,2815
2019-05-20T08:08:02.136Z,2800
2019-05-20T08:08:59.796Z,2755
2019-05-20T08:10:00.088Z,2455
2019-05-20T08:11:00.034Z,2435
2019-05-20T08:12:00.041Z,2495
2019-05-20T08:13:00.107Z,2155
2019-05-20T08:14:00.087Z,1755
2019-05-20T08:15:00.116Z,1670
2019-05-20T08:15:59.858Z,1530
2019-05-20T08:16:59.936Z,1555
2019-05-20T08:18:01.224Z,1515
2019-05-20T08:19:00.281Z,1630
2019-05-20T08:20:00.185Z,1715
2019-05-20T08:21:00.176Z,1940
2019-05-20T08:22:00.018Z,1875
2019-05-20T08:23:00.203Z,1855
2019-05-20T08:24:00.218Z,1790
2019-05-20T08:25:00.025Z,1935
2019-05-20T08:26:00.219Z,1910
2019-05-20T08:27:00.501Z,1925
2019-05-20T08:28:00.245Z,1950
2019-05-20T08:29:00.486Z,1960
2019-05-20T08:30:00.278Z,1960
2019-05-20T08:31:00.727Z,1965
2019-05-20T08:32:00.340Z,1965
2019-05-20T08:33:00.309Z,1945
2019-05-20T08:34:00.772Z,1935
2019-05-20T08:35:00.368Z,1975
2019-05-20T08:36:00.398Z,2020
2019-05-20T08:37:00.370Z,2030
2019-05-20T08:38:00.372Z,2055
2019-05-20T08:39:00.385Z,2045
2019-05-20T08:40:00.390Z,2015
2019-05-20T08:41:00.417Z,2000
2019-05-20T08:42:00.479Z,1980
2019-05-20T08:43:00.180Z,1930
2019-05-20T08:44:00.487Z,1930
2019-05-20T08:45:00.494Z,1760
2019-05-20T08:46:00.535Z,995
2019-05-20T08:47:00.478Z,395
2019-05-20T08:48:00.538Z,385
2019-05-20T08:49:00.493Z,395
2019-05-20T08:50:01.499Z,395
2019-05-20T08:51:00.516Z,395
2019-05-20T08:52:00.555Z,400
2019-05-20T08:53:00.566Z,400
2019-05-20T08:54:00.334Z,410
2019-05-20T08:55:00.574Z,415
2019-05-20T08:56:00.504Z,420
2019-05-20T08:57:02.248Z,420
2019-05-20T08:58:00.452Z,430
2019-05-20T08:59:00.571Z,435
2019-05-20T09:00:00.655Z,440
2019-05-20T09:01:00.656Z,460
2019-05-20T09:02:00.635Z,465
2019-05-20T09:03:14.617Z,520
2019-05-20T09:04:00.725Z,560
2019-05-20T09:05:00.776Z,600
2019-05-20T09:06:00.465Z,635
2019-05-20T09:07:00.726Z,625
2019-05-20T09:08:12.510Z,615
2019-05-20T09:09:00.635Z,630
2019-05-20T09:10:00.662Z,645
2019-05-20T09:11:00.611Z,665
2019-05-20T09:12:00.660Z,665
2019-05-20T09:13:00.664Z,680
2019-05-20T09:14:00.673Z,690
2019-05-20T09:15:00.678Z,710
2019-05-20T09:16:00.659Z,755
2019-05-20T09:17:00.427Z,770
2019-05-20T09:18:00.519Z,770
2019-05-20T09:19:00.707Z,770
2019-05-20T09:20:00.712Z,755
2019-05-20T09:21:00.714Z,755
2019-05-20T09:22:00.699Z,760
2019-05-20T09:23:05.043Z,730
2019-05-20T09:24:00.693Z,685
2019-05-20T09:25:01.453Z,655
2019-05-20T09:26:00.699Z,640
2019-05-20T09:27:00.800Z,615
2019-05-20T09:28:00.724Z,600
2019-05-20T09:29:00.708Z,590
2019-05-20T09:30:00.760Z,580
2019-05-20T09:31:00.739Z,570
2019-05-20T09:32:00.758Z,560
2019-05-20T09:33:00.787Z,570
2019-05-20T09:34:00.823Z,570
2019-05-20T09:35:00.784Z,565
2019-05-20T09:36:00.801Z,570
2019-05-20T09:37:00.510Z,580
2019-05-20T09:38:00.758Z,590
2019-05-20T09:39:01.051Z,585
2019-05-20T09:40:00.785Z,570
2019-05-20T09:41:00.928Z,545
2019-05-20T09:42:00.828Z,535
2019-05-20T09:43:00.872Z,505
2019-05-20T09:44:00.777Z,515
2019-05-20T09:45:05.400Z,495
2019-05-20T09:46:15.836Z,495
2019-05-20T09:47:00.777Z,490
2019-05-20T09:48:00.876Z,520
2019-05-20T09:49:00.826Z,535
2019-05-20T09:50:00.798Z,550
2019-05-20T09:51:00.823Z,555
2019-05-20T09:52:00.599Z,560
2019-05-20T09:53:00.798Z,550
2019-05-20T09:54:00.822Z,550
2019-05-20T09:55:00.812Z,585
2019-05-20T09:56:00.825Z,600
2019-05-20T09:57:00.824Z,600
2019-05-20T09:58:00.824Z,585
2019-05-20T09:59:00.565Z,575
2019-05-20T10:00:00.812Z,595
2019-05-20T10:01:00.609Z,625
2019-05-20T10:02:00.969Z,630
2019-05-20T10:03:00.862Z,635
2019-05-20T10:04:00.830Z,640
2019-05-20T10:05:00.641Z,645
2019-05-20T10:06:00.858Z,635
2019-05-20T10:07:01.055Z,610
2019-05-20T10:08:00.872Z,575
2019-05-20T10:09:00.867Z,565
2019-05-20T10:10:00.849Z,560
2019-05-20T10:11:04.389Z,555
2019-05-20T10:12:00.854Z,555
2019-05-20T10:13:00.568Z,550
2019-05-20T10:14:00.863Z,550
2019-05-20T10:15:02.388Z,530
2019-05-20T10:16:01.072Z,505
2019-05-20T10:17:00.982Z,490
2019-05-20T10:18:01.028Z,485
2019-05-20T10:19:04.970Z,470
2019-05-20T10:20:01.054Z,470
2019-05-20T10:21:01.031Z,465
2019-05-20T10:22:00.950Z,470
2019-05-20T10:23:00.767Z,475
2019-05-20T10:24:01.081Z,470
2019-05-20T10:25:00.919Z,465
2019-05-20T10:26:00.787Z,455
2019-05-20T10:27:00.755Z,445
2019-05-20T10:28:04.536Z,435
2019-05-20T10:29:00.974Z,425
2019-05-20T10:30:00.929Z,430
2019-05-20T10:31:01.017Z,425
2019-05-20T10:32:00.941Z,420
2019-05-20T10:33:00.737Z,420
2019-05-20T10:34:01.056Z,425
2019-05-20T10:35:00.973Z,440
2019-05-20T10:36:01.012Z,455
2019-05-20T10:37:00.943Z,490
2019-05-20T10:38:00.982Z,515
2019-05-20T10:39:12.551Z,550
2019-05-20T10:40:00.956Z,570
2019-05-20T10:41:01.111Z,590
2019-05-20T10:42:00.990Z,620
2019-05-20T10:43:00.789Z,650
2019-05-20T10:44:00.730Z,660
2019-05-20T10:45:00.742Z,660
2019-05-20T10:46:01.041Z,645
2019-05-20T10:47:01.012Z,650
2019-05-20T10:48:00.749Z,670
2019-05-20T10:49:01.030Z,700
2019-05-20T10:50:01.147Z,725
2019-05-20T10:51:01.084Z,745
2019-05-20T10:52:01.025Z,750
2019-05-20T10:53:01.093Z,740
2019-05-20T10:54:00.785Z,700
2019-05-20T10:55:01.041Z,645
2019-05-20T10:56:02.163Z,600
2019-05-20T10:57:04.386Z,585
2019-05-20T10:58:01.053Z,585
2019-05-20T10:59:01.123Z,590
2019-05-20T11:00:01.065Z,595
2019-05-20T11:01:12.603Z,615
2019-05-20T11:02:01.171Z,610
2019-05-20T11:03:01.062Z,605
2019-05-20T11:04:01.074Z,595
2019-05-20T11:05:01.117Z,585
2019-05-20T11:06:01.107Z,570
2019-05-20T11:07:01.088Z,555
2019-05-20T11:08:01.641Z,550
2019-05-20T11:09:16.146Z,555
2019-05-20T11:10:00.868Z,565
2019-05-20T11:11:01.226Z,590
2019-05-20T11:12:01.082Z,605
2019-05-20T11:13:01.091Z,630
2019-05-20T11:14:01.094Z,665
2019-05-20T11:15:01.171Z,700
2019-05-20T11:16:01.167Z,730
2019-05-20T11:17:01.119Z,735
2019-05-20T11:18:00.867Z,725
2019-05-20T11:19:01.116Z,715
2019-05-20T11:20:01.143Z,705
2019-05-20T11:21:01.178Z,715
2019-05-20T11:22:01.498Z,735
2019-05-20T11:23:04.821Z,750
2019-05-20T11:24:01.142Z,765
2019-05-20T11:25:01.156Z,765
2019-05-20T11:26:00.927Z,775
2019-05-20T11:27:01.150Z,770
2019-05-20T11:28:01.498Z,755
2019-05-20T11:29:01.231Z,735
2019-05-20T11:30:01.199Z,715
2019-05-20T11:31:01.188Z,705
2019-05-20T11:32:01.200Z,705
2019-05-20T11:33:01.220Z,710
2019-05-20T11:34:04.756Z,705
2019-05-20T11:35:01.382Z,705
2019-05-20T11:36:01.178Z,700
2019-05-20T11:37:01.600Z,705
2019-05-20T11:38:01.202Z,730
2019-05-20T11:39:01.227Z,760
2019-05-20T11:40:01.218Z,780
2019-05-20T11:41:01.207Z,795
2019-05-20T11:42:03.693Z,795
2019-05-20T11:43:01.206Z,795
2019-05-20T11:44:01.299Z,775
2019-05-20T11:45:01.022Z,745
2019-05-20T11:46:01.232Z,715
2019-05-20T11:47:01.237Z,685
2019-05-20T11:48:01.110Z,660
2019-05-20T11:49:01.278Z,635
2019-05-20T11:50:01.263Z,620
2019-05-20T11:51:01.351Z,610
2019-05-20T11:52:01.253Z,600
2019-05-20T11:53:01.369Z,615
2019-05-20T11:54:01.258Z,640
2019-05-20T11:55:01.290Z,660
2019-05-20T11:56:01.265Z,660
2019-05-20T11:57:01.287Z,660
2019-05-20T11:58:17.629Z,670
2019-05-20T11:59:01.279Z,680
2019-05-20T12:00:01.145Z,695
2019-05-20T12:01:01.074Z,710
2019-05-20T12:02:03.805Z,715
2019-05-20T12:03:01.354Z,720
2019-05-20T12:04:01.316Z,720
2019-05-20T12:05:01.427Z,715
2019-05-20T12:06:01.537Z,710
2019-05-20T12:07:01.317Z,695
2019-05-20T12:08:01.327Z,665
2019-05-20T12:09:01.332Z,620
2019-05-20T12:10:01.352Z,600
2019-05-20T12:11:01.366Z,595
2019-05-20T12:12:01.596Z,590
2019-05-20T12:13:01.490Z,590
2019-05-20T12:14:01.343Z,605
2019-05-20T12:15:01.602Z,630
2019-05-20T12:16:01.353Z,640
2019-05-20T12:17:01.117Z,650
2019-05-20T12:18:01.368Z,650
2019-05-20T12:19:01.381Z,655
2019-05-20T12:20:01.489Z,650
2019-05-20T12:21:01.454Z,650
2019-05-20T12:22:01.441Z,645
2019-05-20T12:23:01.392Z,650
2019-05-20T12:24:01.471Z,650
2019-05-20T12:25:01.275Z,655
2019-05-20T12:26:01.423Z,650
2019-05-20T12:27:01.401Z,650
2019-05-20T12:28:01.446Z,650
2019-05-20T12:29:01.423Z,640
2019-05-20T12:30:01.510Z,630
2019-05-20T12:31:01.399Z,630
2019-05-20T12:32:05.642Z,625
2019-05-20T12:33:27.114Z,615
2019-05-20T12:34:01.165Z,615
2019-05-20T12:35:01.442Z,615
2019-05-20T12:36:01.454Z,620
2019-05-20T12:37:01.468Z,615
2019-05-20T12:38:01.509Z,600
2019-05-20T12:39:01.465Z,575
2019-05-20T12:40:16.164Z,540
2019-05-20T12:41:01.435Z,530
2019-05-20T12:42:01.570Z,530
2019-05-20T12:43:01.477Z,535
2019-05-20T12:44:20.483Z,540
2019-05-20T12:45:01.454Z,540
2019-05-20T12:46:01.494Z,510
2019-05-20T12:47:01.548Z,465
2019-05-20T12:48:01.485Z,430
2019-05-20T12:49:02.359Z,385
2019-05-20T12:50:01.507Z,355
2019-05-20T12:51:01.542Z,320
2019-05-20T12:52:01.498Z,300
2019-05-20T12:53:01.290Z,280
2019-05-20T12:54:01.492Z,270
2019-05-20T12:55:17.489Z,270
2019-05-20T12:56:01.488Z,270
2019-05-20T12:57:01.602Z,270
2019-05-20T12:58:01.497Z,260
2019-05-20T12:59:01.570Z,245
2019-05-20T13:00:01.362Z,230
2019-05-20T13:01:01.273Z,205
2019-05-20T13:02:01.297Z,200
2019-05-20T13:03:01.546Z,210
2019-05-20T13:04:01.514Z,225
2019-05-20T13:05:01.510Z,245
2019-05-20T13:06:01.540Z,255
2019-05-20T13:07:01.292Z,260
2019-05-20T13:08:01.528Z,255
2019-05-20T13:09:01.530Z,245
2019-05-20T13:10:05.354Z,225
2019-05-20T13:11:01.540Z,205
2019-05-20T13:12:01.538Z,175
2019-05-20T13:13:01.538Z,150
2019-05-20T13:14:01.543Z,135
2019-05-20T13:15:01.563Z,125
2019-05-20T13:16:01.517Z,115
2019-05-20T13:17:01.513Z,115
2019-05-20T13:18:01.276Z,115
2019-05-20T13:19:05.724Z,115
2019-05-20T13:20:01.532Z,115
2019-05-20T13:21:01.705Z,115
2019-05-20T13:22:01.579Z,120
2019-05-20T13:23:01.953Z,125
2019-05-20T13:24:02.636Z,130
2019-05-20T13:25:01.519Z,135
2019-05-20T13:26:01.510Z,135
2019-05-20T13:27:01.569Z,135
2019-05-20T13:28:01.627Z,130
2019-05-20T13:29:06.263Z,135
2019-05-20T13:30:01.625Z,130
2019-05-20T13:31:01.522Z,130
2019-05-20T13:32:01.503Z,125
2019-05-20T13:33:01.513Z,115
2019-05-20T13:34:01.510Z,100
2019-05-20T13:35:01.529Z,90
2019-05-20T13:36:01.502Z,80
2019-05-20T13:37:01.538Z,75
2019-05-20T13:38:04.053Z,75
2019-05-20T13:39:01.501Z,70
2019-05-20T13:40:05.604Z,65
2019-05-20T13:41:01.511Z,65
2019-05-20T13:42:01.502Z,60
2019-05-20T13:43:01.516Z,55
2019-05-20T13:44:01.507Z,55
2019-05-20T13:45:01.501Z,55
2019-05-20T13:46:01.560Z,60
2019-05-20T13:47:01.266Z,60
2019-05-20T13:48:01.502Z,60
2019-05-20T13:49:01.508Z,65
2019-05-20T13:50:01.507Z,65
2019-05-20T13:51:01.567Z,60
2019-05-20T13:52:01.583Z,60
2019-05-20T13:53:01.522Z,55
2019-05-20T13:54:01.508Z,50
2019-05-20T13:55:01.497Z,45
2019-05-20T13:56:01.494Z,45
2019-05-20T13:57:01.505Z,40
2019-05-20T13:58:01.493Z,40
2019-05-20T13:59:01.520Z,40
2019-05-20T14:00:01.349Z,35
2019-05-20T14:01:01.570Z,35
2019-05-20T14:02:01.561Z,35
2019-05-20T14:03:01.492Z,35
2019-05-20T14:04:04.154Z,30
2019-05-20T14:05:01.549Z,30
2019-05-20T14:06:01.484Z,30
2019-05-20T14:07:01.489Z,25
2019-05-20T14:08:01.235Z,25
2019-05-20T14:09:01.495Z,25
2019-05-20T14:10:01.506Z,25
2019-05-20T14:11:13.841Z,25
2019-05-20T14:12:01.468Z,25
2019-05-20T14:13:01.230Z,30
2019-05-20T14:14:01.472Z,30
2019-05-20T14:15:01.477Z,20
2019-05-20T14:16:01.481Z,20
2019-05-20T14:17:01.519Z,15
2019-05-20T14:18:01.787Z,15
2019-05-20T14:19:01.481Z,15
2019-05-20T14:20:01.486Z,20
2019-05-20T14:21:01.465Z,20
2019-05-20T14:22:01.365Z,25
2019-05-20T14:23:01.456Z,25
2019-05-20T14:24:16.132Z,20
2019-05-20T14:25:01.731Z,15
2019-05-20T14:26:01.227Z,10
2019-05-20T14:27:01.423Z,5
2019-05-20T14:28:01.446Z,5
2019-05-20T14:29:01.592Z,0
2019-05-20T14:30:01.498Z,0
2019-05-20T14:31:15.681Z,0
2019-05-20T14:32:01.431Z,0
2019-05-20T14:33:01.530Z,0
2019-05-20T14:34:01.534Z,0
2019-05-20T14:35:01.185Z,5
2019-05-20T14:36:01.431Z,5
2019-05-20T14:37:02.588Z,10
2019-05-20T14:38:01.410Z,10
2019-05-20T14:39:01.199Z,10
2019-05-20T14:40:01.454Z,5
2019-05-20T14:41:01.408Z,5
2019-05-20T14:42:01.163Z,5
2019-05-20T14:43:01.473Z,5
2019-05-20T14:44:01.418Z,10
2019-05-20T14:45:01.384Z,15
2019-05-20T14:46:01.514Z,15
2019-05-20T14:47:01.421Z,15
2019-05-20T14:48:01.227Z,15
2019-05-20T14:49:04.941Z,15
2019-05-20T14:50:01.404Z,20
2019-05-20T14:51:01.406Z,25
2019-05-20T14:52:01.485Z,25
2019-05-20T14:53:01.613Z,20
2019-05-20T14:54:01.366Z,15
2019-05-20T14:55:01.359Z,10
2019-05-20T14:56:01.347Z,10
2019-05-20T14:57:01.359Z,20
2019-05-20T14:58:01.477Z,15
2019-05-20T14:59:02.748Z,15
2019-05-20T15:00:01.381Z,20
2019-05-20T15:01:01.323Z,20
2019-05-20T15:02:01.474Z,20
2019-05-20T15:04:01.322Z,25
2019-05-20T15:05:01.307Z,25
2019-05-20T15:06:01.681Z,30
2019-05-20T15:07:01.309Z,40
2019-05-20T15:08:01.303Z,70
2019-05-20T15:09:01.485Z,110
2019-05-20T15:10:01.309Z,155
2019-05-20T15:11:01.279Z,180